Impacts TAF Board INFO
FOR SITUATIONAL AWARENESS. NOT TO BE USED FOR FLIGHT PLANNING PURPOSES.
IDs:

KMIA - Miami Intl, FL, US

Issued at 0541 UTC 20 Jan 2018
Updated at 0917 UTC 20 Jan 2018
Potential Impact None Slight Moderate High
Time0853Z 20/10Z 20/11Z 20/12Z 20/13Z 20/14Z 20/15Z 20/16Z 20/17Z 20/18Z 20/19Z 20/20Z 20/21Z 20/22Z>>
Type OBS PRVL PRVL PRVL PRVL PRVL PRVL PRVL PRVL PRVL PRVL PRVL PRVL PRVL
VIS 10 >6 >6 >6 >6 >6 >6 >6 >6 >6 >6 >6 >6 >6
CIG 40 -- -- -- -- -- 60 60 60 60 60 60 60 --
Cover BKN SCT SCT SCT SCT SCT BKN BKN BKN BKN BKN BKN BKN SCT
FltCat VFR VFR VFR VFR VFR VFR VFR VFR VFR VFR VFR VFR VFR VFR
WX -- -- -- -- -- -- -- -- -- -- -- -- -- --
WDir 350 VRB VRB VRB VRB VRB 80 80 80 80 80 80 80 40
WSpd 4 0 0 0 0 0 9 9 9 9 9 9 9 5
WGst -- -- -- -- -- -- -- -- -- -- -- -- -- --

Raw TAF
KMIA 200541Z 2006/2112 00000KT P6SM SCT035 SCT250
  FM201500 08009KT P6SM SCT035 BKN060
  FM202200 04005KT P6SM SCT035


Raw METAR
KMIA 200853Z 35004KT 10SM BKN040 BKN160 BKN200 17/13 A3019 RMK AO2 SLP223 T01720128 57010
KMIA 200753Z 00000KT 10SM BKN038 BKN200 17/13 A3020 RMK AO2 SLP225 T01720128
KMIA 200653Z 34004KT 10SM FEW032 BKN040 BKN200 17/12 A3021 RMK AO2 SLP230 T01670122

METAR Board
Radar Display
Forecast Discussion

FOR SITUATIONAL AWARENESS. NOT TO BE USED FOR FLIGHT PLANNING PURPOSES.